默认 日期 大小 文件数 浏览量 最新下载 xml
mother.磁力链接相关资源由用户搜索指令自动获取,结果来源于网络,本站不存储任何资料,亦不承担任何责任,请于24小时内删除,搜索到23285个磁力,显示前4000条数据,用时5ms。
    {"lisa ann.mp4": 256119863, "jenni lee.mp4": 253893009, "julia ann.mp4": 210577161, "ava addams.mp4": 245123607, "janet mason.mp4": 292033089}
创建时间: 2018-12-20 04:00:59 大小:1.17 GB 文件数量:5 热度:16 最近下载:2025-08-28 21:10:03
    {"ohrly.nfo": 7157, "file_id.diz": 271, "RARBG.com.txt": 34, "RARBG.COM_XXX_BANNER.jpg": 517081, "00796a4c029fbf5d400706b184c13d7b.jpg": 971090, "02b5049ffdd08407f18e8c40bc1f0bfa.jpg": 898313, "06eb43f462015bb52936e6fd25737d69.jpg": 928041, " ...
创建时间: 2018-12-20 04:10:11 大小:29.13 MB 文件数量:41 热度:11 最近下载:2025-04-06 18:46:01
    {"01.mp4": 2099164739, "02.mp4": 2045708944, "03.mp4": 2068920693, "04.mp4": 2100719106, "05.mp4": 2116089435, "07.mp4": 1866056340, "08.mp4": 1862140185, "09.mp4": 1798189691, "10.mp4": 1610392612, "11.mp4": 1693808458, "12.mp4": 1829375728, "13.mp4": ...
创建时间: 2018-12-20 04:14:52 大小:138.44 GB 文件数量:159 热度:221 最近下载:2025-09-16 20:38:02
    ... 01.jpg": 178440, "Mother and son incest game ~Until ... [303952CA].mkv_thumbs.jpg": 498605, "Mother and son incest game ~Until ... [A20FF556].mkv_thumbs.jpg": 447701}, "Mother and son incest game ~Until ... [303952CA].mkv": 98589769, "Mother and son incest game ~Until ...
创建时间: 2018-12-20 04:15:05 大小:191.2 MB 文件数量:6 热度:25 最近下载:2025-08-02 08:48:10
    {"poster.jpg": 50861, "screens.jpg": 129696, "df.mls11.mp4": 966396450, "RARBG.com.txt": 33}
创建时间: 2018-12-20 04:22:46 大小:921.8 MB 文件数量:4 热度:6 最近下载:2022-04-23 06:39:46
    {" ": 71, "私密_720P.mp4": 2619595309}
创建时间: 2018-12-20 04:32:24 大小:2.44 GB 文件数量:19 热度:436 最近下载:2025-09-20 17:49:01
    {"Digital Sin - A Mother's Temptations DVDRip cd1.mp4": 1423084716, "Digital Sin - A Mother's Temptations DVDRip cd2.mp4": 1297319984}
创建时间: 2018-12-20 04:42:13 大小:2.53 GB 文件数量:2 热度:7 最近下载:2025-02-18 01:38:03
    {"01.jpg": 134605, "02.jpg": 217196, "03.jpg": 334301, "04.jpg": 233316, "05.jpg": 191254, "06.jpg": 278420, "07.jpg": 217595, "08.jpg": 310468, "09.jpg": 257828, "10.jpg": 277875, "11.jpg": 353956, "12.jpg": 212921, "13.jpg": 337648, "14.jpg": 276901, "15 ...
创建时间: 2018-12-20 04:45:32 大小:4.94 MB 文件数量:20 热度:13 最近下载:2025-08-13 17:34:02
    {"Somebody_s_Mother_Indescretions_By_Deauxma_Scene_1.mp4": 195285210, "Somebody_s_Mother_Indescretions_By_Deauxma_Scene_2.mp4": 203213720, "Somebody_s_Mother_Indescretions_By_Deauxma_Scene_3.mp4": 203617715, " ...
创建时间: 2018-12-20 04:48:17 大小:1.26 GB 文件数量:7 热度:9 最近下载:2025-03-10 02:43:03
    ... 22329606, "00 - Mario Lopez - Mother Earth.cue": 2781, "00 - Mario ... Lopez - Mother Earth.log": 5835, "00 - Mario ... Lopez - Mother Earth.m3u": 1505, "05 - I ... 44681798, "00 - Mario Lopez - Mother Earth.accurip": 2003, "07 - Once ...
创建时间: 2018-12-20 04:48:18 大小:505.92 MB 文件数量:19 热度:9 最近下载:2025-08-18 20:40:02
    {"筆下ろし母01.mp4": 207680720, "筆下ろし母02.mp4": 175839750, "筆下ろし母03.mp4": 233315995, "お買い上げありがとうございます。.txt": 284}
创建时间: 2018-12-20 04:48:42 大小:588.26 MB 文件数量:4 热度:27 最近下载:2025-10-04 15:20:04
    ... mp4": 122711526, "The Black Mother Fuckers 2_Scene 5_Persia_AtomicGdog.mp4": 560152729 ... mp4": 449458424, "The Black Mother Fuckers 2_Bonus Scene_Princess_AtomicGdog.mp4": 434182890 ... , "The Black Mother Fuckers 2_Scene 1_Carmen Hayes_AtomicGdog.mp4 ...
创建时间: 2018-12-20 04:54:32 大小:2.94 GB 文件数量:17 热度:17 最近下载:2025-03-16 22:22:04
    {"Galaxy_Express_999_SP3(1980)(RAW_DVD_480p_XVID)[37092424].ass": 94337, "Galaxy_Express_999_SP3(1980)(RAW_DVD_480p_XVID)[37092424].avi": 1206801320}
创建时间: 2018-12-20 04:58:32 大小:1.12 GB 文件数量:2 热度:6 最近下载:2022-04-23 06:38:27
    {"MotherEarthNews1970-1980.rar": 190220739, "MotherEarthNews1980-1990.rar": 181891933, "MotherEarthNews1990-2000.rar": 116714071}
创建时间: 2018-12-20 05:03:10 大小:466.18 MB 文件数量:3 热度:6 最近下载:2025-04-03 03:51:03
    {"RARBG.txt": 30, "MomKnowsBest.17.07.14.Kasey.Warner.And.Ryan.Keely.Mother.May.I.XXX.SD.MP4-KLEENEX.mp4": 222191981}
创建时间: 2018-12-20 05:07:05 大小:211.9 MB 文件数量:2 热度:13 最近下载:2025-08-11 16:43:02
    {"CD1.avi": 733403136, "CD2.avi": 731539456}
创建时间: 2018-12-20 05:23:51 大小:1.36 GB 文件数量:2 热度:9 最近下载:2025-05-04 20:43:02
    ... .flac": 22683743, "Bloody Mother Fucking Asshole.cue": 861, ... "01 - Bloody Mother Fucking Asshole.flac": 20859630, ... "Martha Wainwright - Bloody Mother Fucking Asshole.jpg": 34265, ... "Martha Wainwright - Bloody Mother Fucking Asshole.log": 3308, ...
创建时间: 2018-12-20 05:36:04 大小:99.82 MB 文件数量:10 热度:9 最近下载:2022-04-23 07:00:51
    {"poster.jpg": 22742, "screens.jpg": 119396, "MILF1692.mp4": 362182689, "RARBG.com.txt": 33}
创建时间: 2018-12-20 05:52:40 大小:345.54 MB 文件数量:4 热度:12 最近下载:2025-08-01 15:10:13
    ... - Beautiful And Light.flac": 22563002, "Mother's Daughter and Other Songs ... The Window.flac": 17660628, "Tunng - Mother's Daughter and Other Songs ...
创建时间: 2018-12-20 06:01:20 大小:229.55 MB 文件数量:12 热度:6 最近下载:2024-10-06 13:44:01
    {"Ultra XVid Codec Pack.exe": 12582912, "The Eyes of My Mother 2016.avi": 838860800, "The Eyes of My Mother 2016.txt": 42}
创建时间: 2018-12-20 06:06:59 大小:812 MB 文件数量:3 热度:6 最近下载:2022-04-23 05:46:15